Time;durP1;ratioP1;P1;durP2;ratioP2;P2;SDS_P1;SDS_P2;PMS_P1;PMS_P2;Temp;Humidity;BMP_temperature;BMP_pressure;BME280_temperature;BME280_humidity;BME280_pressure;Samples;Min_cycle;Max_cycle;Signal;HPM_P1;HPM_P2
2022/09/13 00:01:26;;;;;;;;;;;;;;;14.22;93.91;99976.00;4994172;28;1208;-86
2022/09/13 00:03:51;;;;;;;;;;;;;;;14.16;93.42;99980.84;4997540;28;1069;-86
2022/09/13 00:06:17;;;;;;;;;;;;;;;14.08;93.24;99970.63;4996764;28;1961;-85
2022/09/13 00:08:43;;;;;;;;;;;;;;;14.13;93.83;99970.47;4994623;28;1200;-86
2022/09/13 00:11:13;;;;;;;;;;;;;;;14.25;93.32;99978.97;4994792;28;1284;-86
2022/09/13 00:13:38;;;;;;;;;;;;;;;14.41;92.20;99975.81;4996349;28;1005;-86
2022/09/13 00:16:09;;;;;;;;;;;;;;;14.49;91.48;99981.34;4995923;28;609;-86
2022/09/13 00:18:35;;;;;;;;;;;;;;;14.50;92.04;99988.47;4995040;28;974;-86
2022/09/13 00:21:04;;;;;;;;;;;;;;;14.46;92.42;99983.94;4995549;28;1286;-86
2022/09/13 00:23:29;;;;;;;;;;;;;;;14.42;92.38;99983.75;4993872;28;1315;-86
2022/09/13 00:26:01;;;;;;;;;;;;;;;14.47;92.25;99983.59;4994647;28;1890;-86
2022/09/13 00:28:27;;;;;;;;;;;;;;;14.52;91.70;99979.91;5010702;28;1282;-85
2022/09/13 00:30:52;;;;;;;;;;;;;;;14.57;91.34;99971.47;4994087;28;1298;-86
2022/09/13 00:33:17;;;;;;;;;;;;;;;14.59;91.40;99970.03;4993565;28;844;-86
2022/09/13 00:35:42;;;;;;;;;;;;;;;14.63;91.36;99968.25;4995390;28;994;-86
2022/09/13 00:38:07;;;;;;;;;;;;;;;14.70;91.17;99965.03;4996178;28;946;-86
2022/09/13 00:40:35;;;;;;;;;;;;;;;14.66;91.37;99967.63;4996012;28;1283;-86
2022/09/13 00:43:00;;;;;;;;;;;;;;;14.64;91.84;99961.59;4995533;28;1370;-86
2022/09/13 00:45:26;;;;;;;;;;;;;;;14.62;91.94;99949.31;4994808;28;983;-86
2022/09/13 00:47:57;;;;;;;;;;;;;;;14.59;92.99;99947.19;4993633;28;1883;-86
2022/09/13 00:50:41;;;;;;;;;;;;;;;14.62;91.73;99944.63;4994875;28;1185;-86
2022/09/13 00:53:12;;;;;;;;;;;;;;;14.68;91.39;99946.09;4994278;28;901;-85
2022/09/13 00:55:56;;;;;;;;;;;;;;;14.69;92.20;99947.72;4994272;28;1077;-86
2022/09/13 00:58:22;;;;;;;;;;;;;;;14.74;90.31;99949.47;4994737;28;911;-86
2022/09/13 01:00:47;;;;;;;;;;;;;;;14.79;89.84;99926.50;4994330;28;1211;-85
2022/09/13 01:03:14;;;;;;;;;;;;;;;14.79;90.00;99927.31;4994606;28;1266;-86
2022/09/13 01:05:44;;;;;;;;;;;;;;;14.78;90.36;99920.16;4995381;28;846;-85
2022/09/13 01:08:14;;;;;;;;;;;;;;;14.73;90.47;99912.84;5001267;28;1886;-86
2022/09/13 01:10:40;;;;;;;;;;;;;;;14.71;91.14;99908.81;4992693;28;1272;-86
2022/09/13 01:13:13;;;;;;;;;;;;;;;14.70;90.69;99904.44;5012222;28;1336;-85
2022/09/13 01:15:38;;;;;;;;;;;;;;;14.68;90.92;99907.50;4998233;28;858;-86
2022/09/13 01:18:04;;;;;;;;;;;;;;;14.70;90.72;99905.25;4997750;28;1042;-86
2022/09/13 01:20:43;;;;;;;;;;;;;;;14.69;90.38;99894.56;4998094;28;1199;-86
2022/09/13 01:23:34;;;;;;;;;;;;;;;14.66;91.21;99896.00;4996694;28;1269;-86
2022/09/13 01:26:22;;;;;;;;;;;;;;;14.64;90.46;99887.25;4988700;28;1965;-85
2022/09/13 01:28:57;;;;;;;;;;;;;;;14.64;90.48;99884.50;4998214;28;997;-86
2022/09/13 01:31:29;;;;;;;;;;;;;;;14.64;90.24;99881.72;4996612;28;1312;-86
2022/09/13 01:34:13;;;;;;;;;;;;;;;14.64;90.76;99887.25;4997679;28;985;-86
2022/09/13 01:36:46;;;;;;;;;;;;;;;14.63;90.45;99896.63;4999172;28;884;-86
2022/09/13 01:39:16;;;;;;;;;;;;;;;14.60;90.47;99886.28;4997489;28;812;-85
2022/09/13 01:42:00;;;;;;;;;;;;;;;14.62;90.90;99891.47;5012382;28;1257;-85
2022/09/13 01:44:42;;;;;;;;;;;;;;;14.60;90.65;99886.28;4997302;28;866;-86
2022/09/13 01:47:30;;;;;;;;;;;;;;;14.61;91.00;99878.84;5012212;28;1961;-86
2022/09/13 01:50:06;;;;;;;;;;;;;;;14.62;91.04;99873.00;4995720;28;1298;-85
2022/09/13 01:52:47;;;;;;;;;;;;;;;14.62;91.15;99864.75;4996971;28;982;-85
2022/09/13 01:55:35;;;;;;;;;;;;;;;14.61;91.21;99859.53;4997154;28;1013;-86
2022/09/13 01:58:18;;;;;;;;;;;;;;;14.58;91.47;99857.44;4997433;28;859;-86
2022/09/13 02:00:47;;;;;;;;;;;;;;;14.57;92.35;99859.38;4997410;28;1289;-86
2022/09/13 02:03:17;;;;;;;;;;;;;;;14.61;92.60;99862.31;4995770;28;1226;-85
2022/09/13 02:05:49;;;;;;;;;;;;;;;14.57;92.50;99853.88;4997288;28;890;-86
2022/09/13 02:08:14;;;;;;;;;;;;;;;14.54;93.21;99862.78;4997079;28;1890;-85
2022/09/13 02:10:55;;;;;;;;;;;;;;;14.53;94.23;99849.34;4995520;28;1212;-86
2022/09/13 02:13:24;;;;;;;;;;;;;;;14.54;94.01;99856.47;4997157;28;844;-86
2022/09/13 02:15:52;;;;;;;;;;;;;;;14.49;95.72;99842.84;4995858;28;1208;-85
2022/09/13 02:18:21;;;;;;;;;;;;;;;14.51;95.58;99860.66;4995841;28;1282;-86
2022/09/13 02:20:48;;;;;;;;;;;;;;;14.54;94.82;99850.97;4995648;28;1441;-86
2022/09/13 02:23:15;;;;;;;;;;;;;;;14.51;95.76;99860.66;4996551;28;1006;-85
2022/09/13 02:25:41;;;;;;;;;;;;;;;14.50;96.13;99850.78;4996509;28;1005;-85
2022/09/13 02:28:09;;;;;;;;;;;;;;;14.52;94.76;99859.53;4995258;28;1947;-85
2022/09/13 02:30:39;;;;;;;;;;;;;;;14.55;95.18;99849.81;4995416;28;1221;-85
2022/09/13 02:33:07;;;;;;;;;;;;;;;14.57;94.91;99855.81;4995275;28;1168;-86
2022/09/13 02:35:37;;;;;;;;;;;;;;;14.57;95.09;99856.63;4996538;28;855;-86
2022/09/13 02:38:04;;;;;;;;;;;;;;;14.56;95.64;99856.94;4996468;28;1203;-86
2022/09/13 02:40:34;;;;;;;;;;;;;;;14.49;96.37;99859.34;4996758;28;1258;-86
2022/09/13 02:43:03;;;;;;;;;;;;;;;14.50;95.46;99858.22;4995180;28;1254;-86
2022/09/13 02:45:32;;;;;;;;;;;;;;;14.55;95.08;99861.63;4995050;28;1205;-86
2022/09/13 02:48:05;;;;;;;;;;;;;;;14.56;95.29;99860.50;4996228;28;1895;-86
2022/09/13 02:50:45;;;;;;;;;;;;;;;14.49;96.52;99860.16;4996174;28;1240;-86
2022/09/13 02:53:37;;;;;;;;;;;;;;;14.46;95.80;99869.06;4995221;28;1238;-87
2022/09/13 02:56:09;;;;;;;;;;;;;;;14.53;95.21;99869.44;5010908;28;1390;-86
2022/09/13 02:58:45;;;;;;;;;;;;;;;14.57;95.17;99869.56;4994823;28;883;-85
2022/09/13 03:01:10;;;;;;;;;;;;;;;14.59;95.19;99865.38;4995673;28;1263;-86
2022/09/13 03:03:35;;;;;;;;;;;;;;;14.62;94.55;99864.75;4995737;28;1346;-86
2022/09/13 03:06:01;;;;;;;;;;;;;;;14.65;94.45;99866.03;5010304;28;1965;-86
2022/09/13 03:08:28;;;;;;;;;;;;;;;14.65;93.58;99864.06;4995571;28;879;-86
2022/09/13 03:11:14;;;;;;;;;;;;;;;14.64;93.99;99873.47;4994232;28;1296;-85
2022/09/13 03:13:45;;;;;;;;;;;;;;;14.62;94.63;99866.69;4994666;28;1078;-86
2022/09/13 03:16:29;;;;;;;;;;;;;;;14.64;94.14;99859.69;4994046;28;1244;-85
2022/09/13 03:19:13;;;;;;;;;;;;;;;14.66;93.72;99871.22;4995506;28;994;-86
2022/09/13 03:21:55;;;;;;;;;;;;;;;14.68;93.55;99866.19;4994004;28;1331;-86
2022/09/13 03:24:39;;;;;;;;;;;;;;;14.69;93.50;99867.00;5010621;28;1247;-86
2022/09/13 03:27:20;;;;;;;;;;;;;;;14.69;94.14;99862.31;4995162;28;1957;-87
2022/09/13 03:29:49;;;;;;;;;;;;;;;14.69;93.19;99867.81;5010465;28;1346;-87
2022/09/13 03:32:32;;;;;;;;;;;;;;;14.69;93.17;99865.06;4995214;28;966;-87
2022/09/13 03:35:16;;;;;;;;;;;;;;;14.68;93.09;99855.19;4993994;28;1371;-86
2022/09/13 03:37:47;;;;;;;;;;;;;;;14.69;93.13;99854.03;5010314;28;1255;-85
2022/09/13 03:40:14;;;;;;;;;;;;;;;14.68;94.53;99846.09;4995157;28;1243;-86
2022/09/13 03:42:39;;;;;;;;;;;;;;;14.67;93.37;99841.72;4993785;28;1282;-86
2022/09/13 03:45:07;;;;;;;;;;;;;;;14.66;94.36;99846.41;4993803;28;887;-87
2022/09/13 03:47:35;;;;;;;;;;;;;;;14.65;93.62;99850.31;4994947;28;1898;-87
2022/09/13 03:50:01;;;;;;;;;;;;;;;14.65;93.74;99858.56;4994774;28;1185;-86
2022/09/13 03:52:26;;;;;;;;;;;;;;;14.65;93.94;99860.50;4993613;28;1295;-87
2022/09/13 03:54:53;;;;;;;;;;;;;;;14.62;95.05;99859.22;4994716;28;1001;-87
2022/09/13 03:57:22;;;;;;;;;;;;;;;14.59;94.93;99854.34;4994632;28;867;-87
2022/09/13 03:59:48;;;;;;;;;;;;;;;14.60;95.15;99855.97;4994677;28;1216;-87
2022/09/13 04:02:14;;;;;;;;;;;;;;;14.58;95.83;99852.72;4994661;28;1014;-87
2022/09/13 04:04:40;;;;;;;;;;;;;;;14.59;96.09;99853.53;4994902;28;900;-86
2022/09/13 04:07:06;;;;;;;;;;;;;;;14.59;95.80;99854.34;4993165;28;1969;-86
2022/09/13 04:09:32;;;;;;;;;;;;;;;14.59;96.24;99839.78;5002721;28;1223;-86
2022/09/13 04:11:57;;;;;;;;;;;;;;;14.58;96.46;99840.91;4994378;28;1247;-86
2022/09/13 04:14:25;;;;;;;;;;;;;;;14.57;97.52;99840.09;4994426;28;1006;-85
2022/09/13 04:16:50;;;;;;;;;;;;;;;14.57;96.91;99851.09;4994387;28;820;-86
2022/09/13 04:19:15;;;;;;;;;;;;;;;14.56;97.90;99849.47;4994945;28;1081;-85
2022/09/13 04:21:40;;;;;;;;;;;;;;;14.56;97.08;99849.47;4994523;28;1218;-87
2022/09/13 04:24:06;;;;;;;;;;;;;;;14.58;97.48;99836.22;4993735;28;1299;-86
2022/09/13 04:26:31;;;;;;;;;;;;;;;14.59;96.99;99826.81;4993030;28;1890;-86
2022/09/13 04:28:56;;;;;;;;;;;;;;;14.61;96.46;99835.56;4993213;28;1181;-86
2022/09/13 04:31:21;;;;;;;;;;;;;;;14.63;96.69;99829.75;4994839;28;1368;-86
2022/09/13 04:33:48;;;;;;;;;;;;;;;14.62;96.72;99828.13;4994335;28;824;-86
2022/09/13 04:36:13;;;;;;;;;;;;;;;14.64;96.23;99823.06;4994076;28;1009;-86
2022/09/13 04:38:38;;;;;;;;;;;;;;;14.64;96.54;99834.91;4994422;28;862;-86
2022/09/13 04:41:04;;;;;;;;;;;;;;;14.64;96.37;99837.66;4994137;28;1302;-86
2022/09/13 04:43:29;;;;;;;;;;;;;;;14.62;96.72;99837.19;4994273;28;1073;-87
2022/09/13 04:45:58;;;;;;;;;;;;;;;14.61;97.58;99834.75;4994238;28;1021;-86
2022/09/13 04:48:23;;;;;;;;;;;;;;;14.57;98.24;99829.06;4993634;28;1941;-86
2022/09/13 04:50:48;;;;;;;;;;;;;;;14.57;98.58;99831.00;4991847;28;1141;-86
2022/09/13 04:53:13;;;;;;;;;;;;;;;14.54;98.74;99837.19;5008157;28;1083;-86
2022/09/13 04:55:38;;;;;;;;;;;;;;;14.54;98.79;99840.75;4994014;28;807;-86
2022/09/13 04:58:04;;;;;;;;;;;;;;;14.57;98.43;99842.84;4992680;28;974;-86
2022/09/13 05:00:30;;;;;;;;;;;;;;;14.61;98.67;99848.53;4991531;28;1285;-86
2022/09/13 05:02:55;;;;;;;;;;;;;;;14.62;97.46;99853.72;4993028;28;1228;-86
2022/09/13 05:05:21;;;;;;;;;;;;;;;14.62;97.52;99859.22;4993123;28;1173;-86
2022/09/13 05:07:49;;;;;;;;;;;;;;;14.63;97.08;99847.06;4992271;28;1894;-86
2022/09/13 05:10:14;;;;;;;;;;;;;;;14.64;96.82;99840.41;4993831;28;1228;-86
2022/09/13 05:12:39;;;;;;;;;;;;;;;14.64;97.63;99829.41;4993803;28;819;-86
2022/09/13 05:15:05;;;;;;;;;;;;;;;14.64;97.39;99829.41;4994040;28;1001;-86
2022/09/13 05:17:31;;;;;;;;;;;;;;;14.62;98.50;99820.66;4993873;28;836;-86
2022/09/13 05:19:56;;;;;;;;;;;;;;;14.63;99.16;99821.47;4993957;28;1205;-86
2022/09/13 05:22:21;;;;;;;;;;;;;;;14.60;99.73;99833.94;4993646;28;691;-86
2022/09/13 05:24:46;;;;;;;;;;;;;;;14.58;99.28;99830.69;4993572;28;950;-86
2022/09/13 05:27:11;;;;;;;;;;;;;;;14.57;100.00;99831.84;4993207;28;1894;-86
2022/09/13 05:29:36;;;;;;;;;;;;;;;14.60;99.52;99839.47;4994448;28;660;-86
2022/09/13 05:32:01;;;;;;;;;;;;;;;14.63;99.42;99835.25;4995461;28;1367;-86
2022/09/13 05:34:27;;;;;;;;;;;;;;;14.64;97.71;99832.16;4993659;28;897;-86
2022/09/13 05:36:52;;;;;;;;;;;;;;;14.66;97.72;99826.31;4991857;28;1026;-86
2022/09/13 05:39:17;;;;;;;;;;;;;;;14.63;98.17;99827.78;4993570;28;820;-87
2022/09/13 05:41:42;;;;;;;;;;;;;;;14.66;98.63;99823.56;4992089;28;1202;-86
2022/09/13 05:44:08;;;;;;;;;;;;;;;14.69;97.89;99822.94;5008567;28;1193;-86
2022/09/13 05:46:33;;;;;;;;;;;;;;;14.69;97.29;99825.69;4993189;28;1886;-86
2022/09/13 05:48:58;;;;;;;;;;;;;;;14.67;98.17;99822.44;4993426;28;937;-85
2022/09/13 05:51:25;;;;;;;;;;;;;;;14.67;99.48;99826.00;4993452;28;1332;-86
2022/09/13 05:53:51;;;;;;;;;;;;;;;14.69;99.11;99826.50;4993424;28;859;-86
2022/09/13 05:56:21;;;;;;;;;;;;;;;14.75;98.86;99830.69;4993147;28;1096;-87
2022/09/13 05:58:47;;;;;;;;;;;;;;;14.62;97.88;99790.38;4993591;28;1138;-86
2022/09/13 06:01:13;;;;;;;;;;;;;;;14.83;97.55;99823.56;4995406;28;1368;-86
2022/09/13 06:03:39;;;;;;;;;;;;;;;14.84;97.80;99816.94;4996772;28;882;-85
2022/09/13 06:06:04;;;;;;;;;;;;;;;14.87;97.96;99810.78;4995044;28;1902;-86
2022/09/13 06:08:31;;;;;;;;;;;;;;;14.91;97.98;99816.44;4996766;28;978;-86
2022/09/13 06:11:14;;;;;;;;;;;;;;;14.94;97.78;99818.53;4996410;28;1283;-86
2022/09/13 06:13:40;;;;;;;;;;;;;;;14.97;97.70;99815.94;4996581;28;910;-87
2022/09/13 06:16:06;;;;;;;;;;;;;;;14.96;97.90;99811.56;4996342;28;811;-87
2022/09/13 06:18:32;;;;;;;;;;;;;;;14.93;98.34;99814.97;4997003;28;840;-87
2022/09/13 06:20:59;;;;;;;;;;;;;;;14.96;99.76;99824.53;4995423;28;1350;-87
2022/09/13 06:23:24;;;;;;;;;;;;;;;14.93;100.00;99819.66;4996613;28;836;-87
2022/09/13 06:25:49;;;;;;;;;;;;;;;14.94;100.00;99822.09;4996198;28;1006;-87
2022/09/13 06:28:14;;;;;;;;;;;;;;;14.96;100.00;99824.53;4996664;28;1890;-87
2022/09/13 06:30:39;;;;;;;;;;;;;;;14.98;100.00;99830.50;4996125;28;1229;-87
2022/09/13 06:33:04;;;;;;;;;;;;;;;14.99;100.00;99824.69;4995378;28;1212;-86
2022/09/13 06:35:30;;;;;;;;;;;;;;;14.99;100.00;99824.69;5012255;28;1278;-86
2022/09/13 06:37:57;;;;;;;;;;;;;;;14.99;100.00;99819.16;4998651;28;1291;-85
2022/09/13 06:40:22;;;;;;;;;;;;;;;15.00;100.00;99817.22;5015808;28;1238;-86
2022/09/13 06:42:47;;;;;;;;;;;;;;;15.00;100.00;99822.75;5000885;28;847;-86
2022/09/13 06:45:13;;;;;;;;;;;;;;;14.99;100.00;99823.88;5001587;28;1045;-85
2022/09/13 06:47:38;;;;;;;;;;;;;;;15.01;100.00;99833.44;5000715;28;1890;-86
2022/09/13 06:50:04;;;;;;;;;;;;;;;15.03;100.00;99831.19;5000951;28;1706;-86
2022/09/13 06:52:31;;;;;;;;;;;;;;;15.04;100.00;99830.03;5000460;28;1154;-87
2022/09/13 06:54:56;;;;;;;;;;;;;;;15.08;100.00;99830.19;5002186;28;874;-87
2022/09/13 06:57:21;;;;;;;;;;;;;;;15.13;100.00;99832.78;5016672;28;1352;-86
2022/09/13 06:59:47;;;;;;;;;;;;;;;15.19;100.00;99838.94;5001820;28;1232;-86
2022/09/13 07:02:13;;;;;;;;;;;;;;;15.20;100.00;99830.34;5002055;28;958;-86
2022/09/13 07:04:38;;;;;;;;;;;;;;;15.24;100.00;99834.03;5001902;28;898;-86
2022/09/13 07:07:04;;;;;;;;;;;;;;;15.25;100.00;99837.63;5002056;28;1886;-86
2022/09/13 07:09:29;;;;;;;;;;;;;;;15.26;99.29;99833.72;5001147;28;823;-87
2022/09/13 07:11:55;;;;;;;;;;;;;;;15.30;98.38;99835.50;5004754;28;1275;-85
2022/09/13 07:14:21;;;;;;;;;;;;;;;15.33;97.35;99836.78;4999994;28;812;-86
2022/09/13 07:16:47;;;;;;;;;;;;;;;15.37;97.00;99837.75;4997970;28;1244;-86
2022/09/13 07:19:13;;;;;;;;;;;;;;;15.40;96.03;99839.84;4998179;28;1287;-85
2022/09/13 07:21:39;;;;;;;;;;;;;;;15.45;95.85;99836.94;4999374;28;1359;-86
2022/09/13 07:24:04;;;;;;;;;;;;;;;15.51;95.92;99836.41;4999100;28;990;-85
2022/09/13 07:26:30;;;;;;;;;;;;;;;15.50;95.47;99832.03;4999223;28;1898;-86
2022/09/13 07:28:56;;;;;;;;;;;;;;;15.47;95.33;99837.41;4997971;28;1374;-86
2022/09/13 07:31:23;;;;;;;;;;;;;;;15.45;95.09;99836.94;4999683;28;1422;-86
2022/09/13 07:33:56;;;;;;;;;;;;;;;15.43;95.26;99837.25;4998025;28;1331;-85
2022/09/13 07:36:21;;;;;;;;;;;;;;;15.47;95.86;99838.22;4999000;28;828;-86
2022/09/13 07:38:47;;;;;;;;;;;;;;;15.51;95.35;99830.91;4999338;28;962;-86
2022/09/13 07:41:13;;;;;;;;;;;;;;;15.65;94.91;99843.72;4999990;28;1199;-86
2022/09/13 07:43:38;;;;;;;;;;;;;;;15.72;94.27;99846.78;4999552;28;851;-86
2022/09/13 07:46:05;;;;;;;;;;;;;;;15.83;93.42;99848.00;4999833;28;836;-86
2022/09/13 07:48:31;;;;;;;;;;;;;;;15.87;93.07;99835.16;4998154;28;1890;-86
2022/09/13 07:51:03;;;;;;;;;;;;;;;15.92;92.65;99837.75;4999288;28;1113;-86
2022/09/13 07:53:28;;;;;;;;;;;;;;;16.05;92.24;99838.66;4997992;28;1331;-86
2022/09/13 07:55:58;;;;;;;;;;;;;;;16.09;92.21;99836.84;4998157;28;1296;-87
2022/09/13 07:58:23;;;;;;;;;;;;;;;16.14;92.14;99845.75;4999815;28;1096;-86
2022/09/13 08:00:48;;;;;;;;;;;;;;;16.17;91.79;99847.84;4999695;28;1225;-86
2022/09/13 08:03:14;;;;;;;;;;;;;;;16.20;92.30;99843.59;4998870;28;840;-87
2022/09/13 08:05:39;;;;;;;;;;;;;;;16.23;92.48;99845.72;4998631;28;1006;-86
2022/09/13 08:08:06;;;;;;;;;;;;;;;16.25;91.74;99840.63;4998281;28;1971;-87
2022/09/13 08:10:31;;;;;;;;;;;;;;;16.27;92.56;99841.94;4998840;28;1325;-86
2022/09/13 08:12:56;;;;;;;;;;;;;;;16.31;92.49;99835.75;4998610;28;1034;-86
2022/09/13 08:15:21;;;;;;;;;;;;;;;16.33;92.70;99834.28;4998674;28;898;-86
2022/09/13 08:17:46;;;;;;;;;;;;;;;16.34;92.56;99833.09;4999309;28;692;-86
2022/09/13 08:20:11;;;;;;;;;;;;;;;16.28;92.38;99828.94;4998929;28;1231;-83
2022/09/13 08:22:37;;;;;;;;;;;;;;;16.17;93.03;99839.53;4998437;28;1324;-86
2022/09/13 08:25:02;;;;;;;;;;;;;;;16.07;93.01;99831.69;4997641;28;1073;-86
2022/09/13 08:27:27;;;;;;;;;;;;;;;16.03;94.07;99840.94;4997780;28;1886;-86
2022/09/13 08:29:52;;;;;;;;;;;;;;;15.98;94.35;99841.13;4998834;28;1298;-86
2022/09/13 08:32:17;;;;;;;;;;;;;;;15.94;94.69;99843.75;4999733;28;926;-86
2022/09/13 08:34:42;;;;;;;;;;;;;;;15.94;94.45;99843.75;4997181;28;1049;-86
2022/09/13 08:37:08;;;;;;;;;;;;;;;15.94;94.89;99845.69;4999381;28;1041;-86
2022/09/13 08:39:33;;;;;;;;;;;;;;;15.94;95.37;99849.25;4999373;28;887;-86
2022/09/13 08:42:02;;;;;;;;;;;;;;;15.92;95.11;99842.44;4998932;28;1344;-86
2022/09/13 08:44:35;;;;;;;;;;;;;;;16.01;95.05;99849.53;4997207;28;1321;-86
2022/09/13 08:47:10;;;;;;;;;;;;;;;16.16;94.37;99851.72;4998415;28;1973;-86
2022/09/13 08:49:40;;;;;;;;;;;;;;;16.28;94.60;99851.03;4997310;28;1416;-86
2022/09/13 08:52:14;;;;;;;;;;;;;;;16.38;94.09;99847.88;4997730;28;871;-86
2022/09/13 08:54:39;;;;;;;;;;;;;;;16.46;93.71;99844.25;4994214;28;907;-86
2022/09/13 08:57:10;;;;;;;;;;;;;;;16.42;94.05;99851.56;5008738;28;1191;-86
2022/09/13 08:59:45;;;;;;;;;;;;;;;16.54;94.00;99837.84;4994071;28;990;-86
2022/09/13 09:02:13;;;;;;;;;;;;;;;16.68;94.12;99845.91;4994301;28;917;-86
2022/09/13 09:04:44;;;;;;;;;;;;;;;16.74;93.24;99850.09;4993973;28;1096;-86
2022/09/13 09:07:12;;;;;;;;;;;;;;;16.80;93.65;99836.88;4993265;28;1902;-86
2022/09/13 09:09:45;;;;;;;;;;;;;;;16.92;93.79;99834.19;4994229;28;906;-86
2022/09/13 09:12:10;;;;;;;;;;;;;;;17.01;93.69;99832.16;4993121;28;1398;-86
2022/09/13 09:14:41;;;;;;;;;;;;;;;17.09;92.95;99833.22;4993958;28;831;-86
2022/09/13 09:17:12;;;;;;;;;;;;;;;17.20;93.25;99829.66;4993477;28;914;-86
2022/09/13 09:19:42;;;;;;;;;;;;;;;17.31;93.05;99833.63;4993288;28;1373;-86
2022/09/13 09:22:13;;;;;;;;;;;;;;;17.45;92.18;99835.25;4992733;28;1328;-86
2022/09/13 09:24:39;;;;;;;;;;;;;;;17.63;92.76;99823.69;5009249;28;1235;-86
2022/09/13 09:27:13;;;;;;;;;;;;;;;17.77;91.25;99821.41;4993457;28;1898;-86
2022/09/13 09:29:42;;;;;;;;;;;;;;;17.83;90.34;99824.75;4992528;28;1243;-86
2022/09/13 09:32:36;;;;;;;;;;;;;;;17.80;91.66;99821.84;4993518;28;862;-86
2022/09/13 09:35:04;;;;;;;;;;;;;;;17.77;91.32;99820.59;4997563;28;843;-86
2022/09/13 09:37:30;;;;;;;;;;;;;;;17.81;90.93;99815.16;4997453;28;827;-86
2022/09/13 09:40:00;;;;;;;;;;;;;;;17.87;90.90;99819.31;4997727;28;1302;-86
2022/09/13 09:42:27;;;;;;;;;;;;;;;17.95;90.86;99812.88;4996466;28;1237;-86
2022/09/13 09:44:55;;;;;;;;;;;;;;;18.04;90.88;99816.31;4996047;28;1439;-86
2022/09/13 09:47:21;;;;;;;;;;;;;;;18.12;89.66;99820.91;4995694;28;1889;-86
2022/09/13 09:50:08;;;;;;;;;;;;;;;18.23;90.08;99815.72;4997101;28;1192;-86
2022/09/13 09:52:38;;;;;;;;;;;;;;;18.28;89.61;99812.75;4996203;28;1354;-86
2022/09/13 09:55:13;;;;;;;;;;;;;;;18.32;89.70;99803.38;4997248;28;934;-86
2022/09/13 09:57:48;;;;;;;;;;;;;;;18.37;89.19;99803.13;4997299;28;879;-86
2022/09/13 10:00:13;;;;;;;;;;;;;;;18.35;89.98;99804.63;5012225;28;1219;-86
2022/09/13 10:02:42;;;;;;;;;;;;;;;18.34;89.12;99806.59;5012215;28;1164;-86
2022/09/13 10:05:08;;;;;;;;;;;;;;;18.34;90.58;99811.34;4997109;28;1014;-86
2022/09/13 10:07:34;;;;;;;;;;;;;;;18.32;89.61;99816.41;4996680;28;1890;-86
2022/09/13 10:10:05;;;;;;;;;;;;;;;18.30;89.71;99813.16;4996962;28;1201;-86
2022/09/13 10:12:32;;;;;;;;;;;;;;;18.30;87.57;99813.97;4997062;28;915;-86
2022/09/13 10:15:10;;;;;;;;;;;;;;;18.30;88.79;99813.97;4996969;28;906;-86
2022/09/13 10:17:35;;;;;;;;;;;;;;;18.32;89.92;99806.13;4996786;28;1030;-86
2022/09/13 10:20:12;;;;;;;;;;;;;;;18.32;88.65;99808.09;4996683;28;1228;-86
2022/09/13 10:22:37;;;;;;;;;;;;;;;18.27;87.69;99800.84;4995882;28;1213;-84
2022/09/13 10:25:13;;;;;;;;;;;;;;;18.39;88.73;99795.25;4996638;28;1062;-86
2022/09/13 10:27:41;;;;;;;;;;;;;;;18.53;86.45;99809.56;4996375;28;1890;-86
2022/09/13 10:30:07;;;;;;;;;;;;;;;18.61;83.16;99799.53;4996697;28;1217;-86
2022/09/13 10:32:32;;;;;;;;;;;;;;;18.82;83.21;99799.31;4996442;28;1037;-86
2022/09/13 10:35:01;;;;;;;;;;;;;;;18.79;82.28;99797.28;4996656;28;1017;-86
2022/09/13 10:37:32;;;;;;;;;;;;;;;18.86;82.81;99794.69;4994836;28;1144;-86
2022/09/13 10:40:08;;;;;;;;;;;;;;;18.87;83.45;99802.69;5011690;28;1316;-86
2022/09/13 10:42:33;;;;;;;;;;;;;;;18.97;82.25;99798.56;4996423;28;899;-86
2022/09/13 10:45:05;;;;;;;;;;;;;;;18.95;83.03;99797.31;5010959;28;998;-87
2022/09/13 10:47:46;;;;;;;;;;;;;;;19.00;82.44;99789.53;4995755;28;1949;-86
2022/09/13 10:50:17;;;;;;;;;;;;;;;19.11;80.16;99785.09;4996255;28;1251;-87
2022/09/13 10:52:44;;;;;;;;;;;;;;;19.22;80.88;99785.41;5011377;28;1326;-86
2022/09/13 10:55:18;;;;;;;;;;;;;;;19.18;82.94;99779.75;4995300;28;1517;-86
2022/09/13 10:57:44;;;;;;;;;;;;;;;19.13;82.36;99780.03;4994660;28;1180;-86
2022/09/13 11:00:10;;;;;;;;;;;;;;;19.19;80.08;99781.38;4996229;28;1245;-86
2022/09/13 11:02:38;;;;;;;;;;;;;;;19.55;79.36;99783.13;4996342;28;1005;-86
2022/09/13 11:05:12;;;;;;;;;;;;;;;19.79;77.84;99784.91;4995285;28;1312;-86
2022/09/13 11:07:54;;;;;;;;;;;;;;;19.73;79.60;99778.03;4995772;28;1963;-86
2022/09/13 11:10:31;;;;;;;;;;;;;;;19.61;78.87;99772.56;5011026;28;1386;-86
2022/09/13 11:12:59;;;;;;;;;;;;;;;19.59;79.24;99772.09;4996099;28;823;-86
2022/09/13 11:15:42;;;;;;;;;;;;;;;19.50;80.79;99774.25;4996004;28;994;-86
2022/09/13 11:18:16;;;;;;;;;;;;;;;19.44;81.71;99776.47;4994800;28;1345;-87
2022/09/13 11:20:52;;;;;;;;;;;;;;;19.71;79.35;99782.31;4996386;28;1259;-87
2022/09/13 11:23:26;;;;;;;;;;;;;;;19.91;82.46;99782.03;4994683;28;1261;-86
2022/09/13 11:26:11;;;;;;;;;;;;;;;19.90;82.92;99772.09;4995918;28;870;-86
2022/09/13 11:28:47;;;;;;;;;;;;;;;19.88;80.18;99774.44;4994472;28;1882;-86
2022/09/13 11:31:15;;;;;;;;;;;;;;;19.77;79.00;99772.53;4995967;28;1250;-86
2022/09/13 11:33:56;;;;;;;;;;;;;;;19.92;78.76;99780.84;4995825;28;997;-87
2022/09/13 11:36:40;;;;;;;;;;;;;;;19.98;78.99;99784.19;4994311;28;1320;-86
2022/09/13 11:39:24;;;;;;;;;;;;;;;19.84;80.52;99778.28;4994312;28;1239;-87
2022/09/13 11:42:07;;;;;;;;;;;;;;;19.71;81.58;99780.34;4996277;28;1193;-86
2022/09/13 11:45:00;;;;;;;;;;;;;;;19.75;81.31;99784.00;4995772;28;800;-86
2022/09/13 11:47:40;;;;;;;;;;;;;;;19.89;80.66;99781.59;5010820;28;1959;-86
2022/09/13 11:50:05;;;;;;;;;;;;;;;20.06;80.01;99774.84;5011667;28;1273;-86
2022/09/13 11:52:30;;;;;;;;;;;;;;;20.10;81.73;99777.69;4996053;28;1060;-86
2022/09/13 11:55:04;;;;;;;;;;;;;;;20.14;79.32;99782.19;4994609;28;1018;-86
2022/09/13 11:57:48;;;;;;;;;;;;;;;20.22;79.45;99777.59;4993194;28;1274;-84
2022/09/13 12:00:19;;;;;;;;;;;;;;;20.28;78.92;99773.34;4995427;28;1196;-86
2022/09/13 12:02:50;;;;;;;;;;;;;;;20.33;79.85;99773.09;4993831;28;1272;-85
2022/09/13 12:05:21;;;;;;;;;;;;;;;20.22;79.85;99772.84;4993876;28;1240;-84
2022/09/13 12:07:52;;;;;;;;;;;;;;;20.11;80.10;99766.22;4994019;28;1898;-86
2022/09/13 12:10:28;;;;;;;;;;;;;;;19.92;82.05;99772.53;4993899;28;1247;-86
2022/09/13 12:12:55;;;;;;;;;;;;;;;19.87;82.92;99769.22;5010506;28;1253;-86
2022/09/13 12:15:28;;;;;;;;;;;;;;;19.95;81.91;99771.00;4995712;28;823;-86
2022/09/13 12:17:57;;;;;;;;;;;;;;;19.96;82.28;99767.88;4993867;28;1407;-86
2022/09/13 12:20:51;;;;;;;;;;;;;;;20.06;81.16;99755.41;4993589;28;1229;-83
2022/09/13 12:23:30;;;;;;;;;;;;;;;20.17;80.87;99756.44;4988840;28;1361;-86
2022/09/13 12:26:12;;;;;;;;;;;;;;;20.27;79.96;99755.06;4994475;28;1092;-86
2022/09/13 12:28:47;;;;;;;;;;;;;;;20.26;80.41;99740.34;4994879;28;1962;-86
2022/09/13 12:31:18;;;;;;;;;;;;;;;20.36;80.18;99750.94;4994434;28;1216;-86
2022/09/13 12:33:44;;;;;;;;;;;;;;;20.34;80.40;99746.91;4992957;28;1264;-86
2022/09/13 12:36:27;;;;;;;;;;;;;;;20.35;81.14;99749.31;4994140;28;859;-86
2022/09/13 12:39:11;;;;;;;;;;;;;;;20.48;79.11;99750.00;4994891;28;859;-86
2022/09/13 12:42:06;;;;;;;;;;;;;;;20.46;80.62;99746.78;4994499;28;1201;-86
2022/09/13 12:44:39;;;;;;;;;;;;;;;20.33;81.74;99742.50;4994068;28;819;-86
2022/09/13 12:47:23;;;;;;;;;;;;;;;20.36;82.42;99750.13;4992619;28;1898;-86
2022/09/13 12:50:02;;;;;;;;;;;;;;;20.38;81.05;99748.63;4993282;28;1202;-86
2022/09/13 12:52:46;;;;;;;;;;;;;;;20.39;79.73;99738.31;4994281;28;1041;-86
2022/09/13 12:55:20;;;;;;;;;;;;;;;20.40;80.10;99748.25;4994032;28;1022;-86
2022/09/13 12:57:56;;;;;;;;;;;;;;;20.48;79.22;99763.91;4994043;28;1018;-86
2022/09/13 13:00:23;;;;;;;;;;;;;;;20.57;79.78;99752.56;4993166;28;1207;-86
2022/09/13 13:02:48;;;;;;;;;;;;;;;20.87;78.82;99741.66;5009944;28;1185;-86
2022/09/13 13:05:30;;;;;;;;;;;;;;;20.85;79.34;99743.97;4992812;28;977;-86
2022/09/13 13:07:58;;;;;;;;;;;;;;;20.87;79.82;99744.44;4994589;28;1969;-86
2022/09/13 13:10:34;;;;;;;;;;;;;;;20.93;79.52;99740.16;4996739;28;1325;-86
2022/09/13 13:13:20;;;;;;;;;;;;;;;21.01;79.04;99736.38;4998501;28;843;-86
2022/09/13 13:15:45;;;;;;;;;;;;;;;20.85;80.11;99732.84;4998125;28;836;-86